createdAt,value
2022-09-28T00:02:36.719Z,42
2022-09-28T00:08:07.083Z,41.5
2022-09-28T00:13:37.518Z,42
2022-09-28T00:19:07.023Z,41.5
2022-09-28T00:24:37.516Z,42
2022-09-28T00:30:07.940Z,41.5
2022-09-28T00:35:37.454Z,41.5
2022-09-28T00:41:07.942Z,42
2022-09-28T00:46:38.398Z,42
2022-09-28T00:52:07.898Z,41.5
2022-09-28T00:57:38.396Z,41.5
2022-09-28T01:03:08.855Z,42
2022-09-28T01:08:38.343Z,42
2022-09-28T01:14:08.842Z,42
2022-09-28T01:19:39.319Z,42
2022-09-28T01:25:08.794Z,42
2022-09-28T01:30:39.317Z,42
2022-09-28T01:36:09.758Z,42
2022-09-28T01:41:39.269Z,42
2022-09-28T01:47:09.764Z,42
2022-09-28T01:52:40.235Z,42
2022-09-28T01:58:09.739Z,42
2022-09-28T02:03:40.220Z,42
2022-09-28T02:09:10.729Z,42
2022-09-28T02:14:40.157Z,42
2022-09-28T02:20:10.653Z,42
2022-09-28T02:25:41.119Z,42
2022-09-28T02:31:10.683Z,42
2022-09-28T02:36:41.093Z,42
2022-09-28T02:42:11.540Z,42
2022-09-28T02:47:41.025Z,42
2022-09-28T02:53:11.529Z,42.5
2022-09-28T02:58:41.995Z,43
2022-09-28T03:04:11.497Z,43
2022-09-28T03:09:41.003Z,43
2022-09-28T03:15:11.462Z,43
2022-09-28T03:20:40.975Z,43
2022-09-28T03:26:11.448Z,43
2022-09-28T03:31:42.038Z,43
2022-09-28T03:37:11.398Z,43
2022-09-28T03:42:41.923Z,43
2022-09-28T03:48:12.386Z,43
2022-09-28T03:53:41.866Z,43
2022-09-28T03:59:12.462Z,43
2022-09-28T04:04:41.949Z,43
2022-09-28T04:10:12.407Z,43
2022-09-28T04:15:42.941Z,43
2022-09-28T04:21:12.406Z,43
2022-09-28T04:26:42.865Z,43
2022-09-28T04:32:13.385Z,43
2022-09-28T04:37:42.859Z,43
2022-09-28T04:43:13.329Z,43
2022-09-28T04:48:43.837Z,43
2022-09-28T04:54:13.307Z,43
2022-09-28T04:59:43.866Z,43
2022-09-28T05:05:14.350Z,43
2022-09-28T05:10:43.896Z,43
2022-09-28T05:16:14.444Z,43
2022-09-28T05:21:43.948Z,43
2022-09-28T05:27:14.351Z,43.5
2022-09-28T05:32:44.837Z,43.5
2022-09-28T05:38:14.348Z,43
2022-09-28T05:43:44.793Z,43.5
2022-09-28T05:49:15.277Z,43
2022-09-28T05:54:44.804Z,43
2022-09-28T06:00:15.356Z,43
2022-09-28T06:05:45.836Z,43
2022-09-28T06:11:16.326Z,43
2022-09-28T06:16:45.922Z,43
2022-09-28T06:22:16.276Z,43
2022-09-28T06:27:46.823Z,43
2022-09-28T06:33:16.289Z,43
2022-09-28T06:38:46.772Z,43
2022-09-28T06:44:16.384Z,43
2022-09-28T06:49:45.724Z,43
2022-09-28T06:55:16.213Z,43
2022-09-28T07:00:45.803Z,43
2022-09-28T07:07:22.285Z,43
2022-09-28T07:12:52.841Z,43
2022-09-28T07:18:22.395Z,43
2022-09-28T07:23:54.229Z,43
2022-09-28T07:29:23.341Z,43
2022-09-28T07:34:58.094Z,43
2022-09-28T07:40:23.392Z,43
2022-09-28T07:45:53.924Z,42.5
2022-09-28T07:51:23.318Z,42.5
2022-09-28T07:56:53.766Z,42.5
2022-09-28T08:02:23.301Z,42.5
2022-09-28T08:07:53.735Z,42.5
2022-09-28T08:13:26.970Z,42.5
2022-09-28T08:18:54.768Z,42.5
2022-09-28T08:24:24.315Z,42.5
2022-09-28T08:29:54.765Z,42.5
2022-09-28T08:35:25.256Z,41.5
2022-09-28T08:40:54.939Z,41.5
2022-09-28T08:46:27.070Z,41.5
2022-09-28T08:51:55.701Z,41.5
2022-09-28T08:57:25.199Z,41.5
2022-09-28T09:02:55.747Z,41.5
2022-09-28T09:08:26.121Z,41.5
2022-09-28T09:13:55.631Z,41.5
2022-09-28T09:19:26.079Z,41.5
2022-09-28T09:24:56.569Z,41
2022-09-28T09:30:29.572Z,41
2022-09-28T09:35:56.659Z,41
2022-09-28T09:41:27.122Z,41
2022-09-28T09:46:56.655Z,41.5
2022-09-28T09:52:27.171Z,41.5
2022-09-28T09:57:56.609Z,41
2022-09-28T10:03:27.102Z,41
2022-09-28T10:08:57.528Z,41
2022-09-28T10:14:28.039Z,41
2022-09-28T10:19:57.535Z,40.5
2022-09-28T10:25:27.969Z,40.5
2022-09-28T10:30:57.599Z,40.5
2022-09-28T10:36:27.982Z,40
2022-09-28T10:41:58.428Z,40
2022-09-28T10:47:28.062Z,40
2022-09-28T10:52:58.566Z,40
2022-09-28T10:58:29.032Z,40
2022-09-28T11:03:58.498Z,40
2022-09-28T11:09:30.833Z,40.5
2022-09-28T11:14:59.470Z,40.5
2022-09-28T11:20:28.941Z,40.5
2022-09-28T11:25:59.443Z,40.5
2022-09-28T11:31:29.922Z,40.5
2022-09-28T11:37:01.751Z,40
2022-09-28T11:42:30.031Z,40.5
2022-09-28T11:48:00.328Z,40.5
2022-09-28T11:53:29.872Z,40.5
2022-09-28T11:59:00.395Z,40.5
2022-09-28T12:04:30.780Z,41
2022-09-28T12:10:00.256Z,41
2022-09-28T12:15:42.140Z,41
2022-09-28T12:21:05.042Z,41
2022-09-28T12:26:34.619Z,41
2022-09-28T12:32:01.217Z,41
2022-09-28T12:37:31.705Z,41
2022-09-28T12:43:01.173Z,41
2022-09-28T12:48:31.676Z,41
2022-09-28T12:54:01.126Z,41
2022-09-28T12:59:31.615Z,41
2022-09-28T13:05:02.192Z,41
2022-09-28T13:10:32.588Z,41
2022-09-28T13:16:02.139Z,40.5
2022-09-28T13:21:32.571Z,40.5
2022-09-28T13:27:03.030Z,40.5
2022-09-28T13:32:33.505Z,41
2022-09-28T13:38:03.002Z,41
2022-09-28T13:43:33.464Z,40.5
2022-09-28T13:49:03.968Z,40.5
2022-09-28T13:54:36.090Z,40.5
2022-09-28T14:00:03.944Z,40.5
2022-09-28T14:05:34.399Z,40.5
2022-09-28T14:11:02.945Z,40.5
2022-09-28T14:16:33.411Z,41
2022-09-28T14:22:03.864Z,40.5
2022-09-28T14:27:34.369Z,40.5
2022-09-28T14:33:03.834Z,40.5
2022-09-28T14:38:34.302Z,40.5
2022-09-28T14:44:04.814Z,40.5
2022-09-28T14:49:34.269Z,40.5
2022-09-28T14:55:04.752Z,40.5
2022-09-28T15:00:35.239Z,40.5
2022-09-28T15:06:04.713Z,40.5
2022-09-28T15:11:35.191Z,40.5
2022-09-28T15:17:05.699Z,40.5
2022-09-28T15:22:35.164Z,40.5
2022-09-28T15:28:05.638Z,40.5
2022-09-28T15:33:35.148Z,40.5
2022-09-28T15:39:05.612Z,40.5
2022-09-28T15:44:36.062Z,40.5
2022-09-28T15:50:05.640Z,40.5
2022-09-28T15:55:36.042Z,41
2022-09-28T16:01:06.570Z,41
2022-09-28T16:06:36.015Z,41
2022-09-28T16:12:06.479Z,41
2022-09-28T16:17:36.939Z,41
2022-09-28T16:23:06.462Z,41
2022-09-28T16:28:36.915Z,41
2022-09-28T16:34:10.814Z,41.5
2022-09-28T16:39:36.914Z,41.5
2022-09-28T16:45:07.360Z,41.5
2022-09-28T16:50:36.855Z,41.5
2022-09-28T16:56:07.376Z,41.5
2022-09-28T17:01:37.900Z,41.5
2022-09-28T17:07:07.331Z,42
2022-09-28T17:12:37.833Z,42
2022-09-28T17:18:08.269Z,42
2022-09-28T17:23:37.776Z,42
2022-09-28T17:29:08.287Z,42
2022-09-28T17:34:38.734Z,42
2022-09-28T17:40:09.212Z,45
2022-09-28T17:45:38.842Z,47
2022-09-28T17:51:09.173Z,48
2022-09-28T17:56:38.659Z,47.5
2022-09-28T18:02:09.230Z,47
2022-09-28T18:07:42.242Z,46.5
2022-09-28T18:13:09.103Z,46
2022-09-28T18:18:39.619Z,46
2022-09-28T18:24:10.089Z,46.5
2022-09-28T18:29:39.551Z,47
2022-09-28T18:35:10.051Z,47.5
2022-09-28T18:40:40.570Z,47.5
2022-09-28T18:46:10.059Z,48
2022-09-28T18:51:40.495Z,48
2022-09-28T18:57:10.946Z,48
2022-09-28T19:02:40.604Z,48
2022-09-28T19:08:10.952Z,47.5
2022-09-28T19:13:41.399Z,47.5
2022-09-28T19:19:10.905Z,47.5
2022-09-28T19:24:41.408Z,47
2022-09-28T19:30:10.885Z,47
2022-09-28T19:35:41.353Z,47
2022-09-28T19:41:11.884Z,47
2022-09-28T19:46:41.376Z,46.5
2022-09-28T19:52:14.602Z,46.5
2022-09-28T19:57:42.313Z,46.5
2022-09-28T20:03:11.787Z,47
2022-09-28T20:08:44.094Z,47
2022-09-28T20:14:12.742Z,47
2022-09-28T20:19:42.226Z,47
2022-09-28T20:25:12.737Z,47
2022-09-28T20:30:43.257Z,47
2022-09-28T20:36:13.671Z,47
2022-09-28T20:41:43.150Z,47
2022-09-28T20:47:13.729Z,47
2022-09-28T20:52:43.134Z,47
2022-09-28T20:58:13.599Z,47
2022-09-28T21:03:44.108Z,47
2022-09-28T21:09:13.576Z,47
2022-09-28T21:14:44.047Z,47
2022-09-28T21:20:14.547Z,47
2022-09-28T21:25:44.006Z,47
2022-09-28T21:31:14.589Z,47
2022-09-28T21:36:43.994Z,46.5
2022-09-28T21:42:14.446Z,46.5
2022-09-28T21:47:44.935Z,46.5
2022-09-28T21:53:14.441Z,46.5
2022-09-28T21:58:44.909Z,46.5
2022-09-28T22:04:15.452Z,46.5
2022-09-28T22:09:44.934Z,46.5
2022-09-28T22:15:15.381Z,46.5
2022-09-28T22:20:45.842Z,46.5
2022-09-28T22:26:15.374Z,46.5
2022-09-28T22:31:45.838Z,46.5
2022-09-28T22:37:16.302Z,46.5
2022-09-28T22:42:45.935Z,46.5
2022-09-28T22:48:16.273Z,46.5
2022-09-28T22:53:46.757Z,46.5
2022-09-28T22:59:16.320Z,46
2022-09-28T23:04:46.747Z,46
2022-09-28T23:10:16.225Z,46
2022-09-28T23:15:46.784Z,46
2022-09-28T23:21:17.186Z,46
2022-09-28T23:26:46.680Z,46
2022-09-28T23:32:17.191Z,46
2022-09-28T23:37:47.649Z,46
2022-09-28T23:43:17.109Z,46
2022-09-28T23:48:47.629Z,46
2022-09-28T23:54:18.064Z,46
2022-09-28T23:59:47.575Z,46
